Other Surface Observations
Issued by NWS Missoula, MT

Home | Current Version | Previous Version | Text Only | Print | Product List | Glossary On
Versions: 1 2 3 4 5 6 7 8 9 10 11 12 13 14 15 16 17 18 19 20 21 22 23 24 25 26 27 28 29 30 31 32 33 34 35 36 37 38 39 40 41 42 43 44 45 46 47 48 49 50
000
SXUS55 KMSO 011243
OSOMSO
MONTANA AWOS SUMMARY
NATIONAL WEATHER SERVICE MISSOULA MT
643 AM MDT FRI AUG 1 2014

Montana AWOS Reports

LAUREL      |K6S8 011235Z AUTO 00000KT 40SM 16/06 A3012 RMK AO1 T01560056
ROUNDUP     |KRPX 011235Z AUTO 00000KT 40SM 17/06 A3005 RMK AO1 T01720056
MALTA       |KM75 011235Z AUTO 00000KT 40SM 15/11 A3004 RMK AO1 T01500111




USA.gov is the U.S. government's official web portal to all federal, state and local government web resources and services.